Bancroft, South Dakota
Current Conditions -  °F | °C
As of 4:55 AM on Friday 31 Oct 2014 (Local Time) from KHON Reporting Station
Clear Clear  
Wind Chill:   Ceiling: Unl
Heat Index: 13°   Visibility: NA
Dew Point: 11°   Wind: 5mph
Humidity: 92%   Direction: 320°NW
Pressure: 30.59"   Gusts: NA
Location:  44.3062°N, 97.8068°W
Report Text: KHON 310955Z AUTO 32004KT CLR M11/M12 A3059 RMK AO2 SLP378 T11061117 $
Loading
Personal Weather Stations






























Interactive Weather Map
Tropical Storm Tracking
New forecast layout! Learn more

10-Day Weather Forecast

Advertisements
Track Severe Weather on mobile